Ever Ursula — 3FCB9 — position and weather

sailwx.info

Track history (hours):
 
Tides and Currents Weather Stations Pressure Air Temp Water Temp Dewpoint Dewpoint Depression Visibility Wind Speed Wind Dir Waves Ship Positions

Ever Ursula

Last reported at 2017-May-23 05:44 UTC. Time now 2017-May-30 07:18 UTC.
Position N 31°05' E 122°35'.

Type: Ship (hazmat cat D). MMSI: 357737000.

Date/timePositionNaut miles runAvg speedWind from/ knotsBaromVisibWave heightAir tempDewpointWater temp
2017-May-23 05:44N 31°05' E 122°35'414.5
2017-May-23 05:27N 31°05' E 122°30'511.9
2017-May-23 05:00N 31°06' E 122°24'713.8
2017-May-23 04:30N 31°08' E 122°16'612.3
2017-May-23 04:00N 31°11' E 122°10'611.7
2017-May-23 03:30N 31°14' E 122°04'510.4
2017-May-23 03:00N 31°15' E 121°58'5 9.8
2017-May-23 02:31N 31°16' E 121°52'5 9.4
2017-May-23 02:00N 31°18' E 121°47'5 9.1
2017-May-23 01:30N 31°20' E 121°42'4 7.3
2017-May-23 01:00N 31°21' E 121°39'3 6.9
2017-May-23 00:30N 31°23' E 121°35'0 0.1
2017-May-23 00:00N 31°22' E 121°35'0 0.0
2017-May-22 23:30N 31°22' E 121°35'0 0.0
2017-May-22 23:00N 31°22' E 121°35'0 0.0
2017-May-22 22:30N 31°22' E 121°35'0 0.0
2017-May-22 22:00N 31°22' E 121°35'0 0.0
2017-May-22 21:30N 31°22' E 121°35'0 0.0
2017-May-22 21:00N 31°22' E 121°35'0 0.0
2017-May-22 20:30N 31°22' E 121°35'0 0.0
2017-May-22 20:00N 31°22' E 121°35'0 0.0
2017-May-22 19:30N 31°22' E 121°35'0 0.0
2017-May-22 19:00N 31°22' E 121°35'0 0.0
2017-May-22 18:30N 31°22' E 121°35'0 0.1
2017-May-22 18:00N 31°22' E 121°35'0 0.1
2017-May-22 17:30N 31°22' E 121°35'0 0.0
2017-May-22 17:00N 31°22' E 121°35'0 0.0
2017-May-22 16:30N 31°22' E 121°35'0 0.0
2017-May-22 16:00N 31°22' E 121°35'0 0.0
2017-May-22 15:30N 31°22' E 121°35'0 0.0
2017-May-22 15:00N 31°22' E 121°35'0 0.0
2017-May-22 14:00N 31°22' E 121°35'0 0.0
2017-May-22 13:30N 31°22' E 121°35'0 0.0
2017-May-22 13:00N 31°22' E 121°35'0 0.0
2017-May-22 12:30N 31°22' E 121°35'0 0.1
2017-May-22 12:00N 31°23' E 121°35'0 0.0
2017-May-22 11:30N 31°23' E 121°35'0 0.1
2017-May-22 11:00N 31°22' E 121°35'0 0.0
2017-May-22 10:30N 31°22' E 121°35'0 0.0
2017-May-22 10:00N 31°22' E 121°35'0 0.0
2017-May-22 09:30N 31°22' E 121°35'0 0.0
2017-May-22 09:00N 31°22' E 121°35'94 4.0
2017-May-21 09:51N 30°55' E 123°19'7 1.1
2017-May-21 03:51N 30°49' E 123°23'2 5.8
2017-May-21 03:29N 30°49' E 123°20'1113.5
2017-May-21 02:41N 30°52' E 123°08'1 7.2
2017-May-21 02:30N 30°51' E 123°07'40312.7
2017-May-19 18:45N 24°51' E 119°43'2817.0
2017-May-19 17:06N 24°33' E 119°19'216.8
2017-May-19 17:01N 24°32' E 119°18'1316.5
2017-May-19 16:12N 24°24' E 119°07'30313.0
2017-May-18 16:49N 22°19' E 114°06'2 4.1
2017-May-18 16:27N 22°20' E 114°07'0 0.3
2017-May-18 14:37N 22°20' E 114°08'0 0.0
2017-May-18 13:52N 22°20' E 114°08'0 0.0
2017-May-18 12:58N 22°20' E 114°08'0 0.0
2017-May-18 12:30N 22°20' E 114°08'1 0.1
2017-May-18 06:46N 22°19' E 114°07'  
2017-May-14 00:30N 01°17' E 104°16'715.0
2017-May-14 00:01N 01°16' E 104°08'815.1
2017-May-13 23:30N 01°14' E 104°01'714.9
2017-May-13 23:01N 01°12' E 103°54'816.4
2017-May-13 22:31N 01°08' E 103°47'815.7
2017-May-13 22:01N 01°03' E 103°40'612.2
2017-May-13 21:30N 01°05' E 103°35'713.5
2017-May-13 21:00N 01°09' E 103°29'713.3
2017-May-13 20:29N 01°13' E 103°23'713.4
2017-May-13 19:58N 01°17' E 103°18'3013.3
2017-May-13 17:41N 01°35' E 102°53'313.2
2017-May-13 17:27N 01°37' E 102°51'1913.9
2017-May-13 16:05N 01°45' E 102°33'114.8
2017-May-13 16:00N 01°46' E 102°32'714.5
2017-May-13 15:31N 01°49' E 102°26'815.0
2017-May-13 15:00N 01°52' E 102°19'  
Track history (hours):
 
Tides and Currents Weather Stations Pressure Air Temp Water Temp Dewpoint Dewpoint Depression Visibility Wind Speed Wind Dir Waves Ship Positions

Ever Ursula

Last reported at 2017-May-23 05:44 UTC. Time now 2017-May-30 07:18 UTC.
Position N 31°05' E 122°35'.

Type: Ship (hazmat cat D). MMSI: 357737000.

Date/timePositionNaut miles runAvg speedWind from/ knotsBaromVisibWave heightAir tempDewpointWater temp
2017-May-23 05:44N 31°05' E 122°35'414.5
2017-May-23 05:27N 31°05' E 122°30'511.9
2017-May-23 05:00N 31°06' E 122°24'713.8
2017-May-23 04:30N 31°08' E 122°16'612.3
2017-May-23 04:00N 31°11' E 122°10'611.7
2017-May-23 03:30N 31°14' E 122°04'510.4
2017-May-23 03:00N 31°15' E 121°58'5 9.8
2017-May-23 02:31N 31°16' E 121°52'5 9.4
2017-May-23 02:00N 31°18' E 121°47'5 9.1
2017-May-23 01:30N 31°20' E 121°42'4 7.3
2017-May-23 01:00N 31°21' E 121°39'3 6.9
2017-May-23 00:30N 31°23' E 121°35'0 0.1
2017-May-23 00:00N 31°22' E 121°35'0 0.0
2017-May-22 23:30N 31°22' E 121°35'0 0.0
2017-May-22 23:00N 31°22' E 121°35'0 0.0
2017-May-22 22:30N 31°22' E 121°35'0 0.0
2017-May-22 22:00N 31°22' E 121°35'0 0.0
2017-May-22 21:30N 31°22' E 121°35'0 0.0
2017-May-22 21:00N 31°22' E 121°35'0 0.0
2017-May-22 20:30N 31°22' E 121°35'0 0.0
2017-May-22 20:00N 31°22' E 121°35'0 0.0
2017-May-22 19:30N 31°22' E 121°35'0 0.0
2017-May-22 19:00N 31°22' E 121°35'0 0.0
2017-May-22 18:30N 31°22' E 121°35'0 0.1
2017-May-22 18:00N 31°22' E 121°35'0 0.1
2017-May-22 17:30N 31°22' E 121°35'0 0.0
2017-May-22 17:00N 31°22' E 121°35'0 0.0
2017-May-22 16:30N 31°22' E 121°35'0 0.0
2017-May-22 16:00N 31°22' E 121°35'0 0.0
2017-May-22 15:30N 31°22' E 121°35'0 0.0
2017-May-22 15:00N 31°22' E 121°35'0 0.0
2017-May-22 14:00N 31°22' E 121°35'0 0.0
2017-May-22 13:30N 31°22' E 121°35'0 0.0
2017-May-22 13:00N 31°22' E 121°35'0 0.0
2017-May-22 12:30N 31°22' E 121°35'0 0.1
2017-May-22 12:00N 31°23' E 121°35'0 0.0
2017-May-22 11:30N 31°23' E 121°35'0 0.1
2017-May-22 11:00N 31°22' E 121°35'0 0.0
2017-May-22 10:30N 31°22' E 121°35'0 0.0
2017-May-22 10:00N 31°22' E 121°35'0 0.0
2017-May-22 09:30N 31°22' E 121°35'0 0.0
2017-May-22 09:00N 31°22' E 121°35'94 4.0
2017-May-21 09:51N 30°55' E 123°19'7 1.1
2017-May-21 03:51N 30°49' E 123°23'2 5.8
2017-May-21 03:29N 30°49' E 123°20'1113.5
2017-May-21 02:41N 30°52' E 123°08'1 7.2
2017-May-21 02:30N 30°51' E 123°07'40312.7
2017-May-19 18:45N 24°51' E 119°43'2817.0
2017-May-19 17:06N 24°33' E 119°19'216.8
2017-May-19 17:01N 24°32' E 119°18'1316.5
2017-May-19 16:12N 24°24' E 119°07'30313.0
2017-May-18 16:49N 22°19' E 114°06'2 4.1
2017-May-18 16:27N 22°20' E 114°07'0 0.3
2017-May-18 14:37N 22°20' E 114°08'0 0.0
2017-May-18 13:52N 22°20' E 114°08'0 0.0
2017-May-18 12:58N 22°20' E 114°08'0 0.0
2017-May-18 12:30N 22°20' E 114°08'1 0.1
2017-May-18 06:46N 22°19' E 114°07'  
2017-May-14 00:30N 01°17' E 104°16'715.0
2017-May-14 00:01N 01°16' E 104°08'815.1
2017-May-13 23:30N 01°14' E 104°01'714.9
2017-May-13 23:01N 01°12' E 103°54'816.4
2017-May-13 22:31N 01°08' E 103°47'815.7
2017-May-13 22:01N 01°03' E 103°40'612.2
2017-May-13 21:30N 01°05' E 103°35'713.5
2017-May-13 21:00N 01°09' E 103°29'713.3
2017-May-13 20:29N 01°13' E 103°23'713.4
2017-May-13 19:58N 01°17' E 103°18'3013.3
2017-May-13 17:41N 01°35' E 102°53'313.2
2017-May-13 17:27N 01°37' E 102°51'1913.9
2017-May-13 16:05N 01°45' E 102°33'114.8
2017-May-13 16:00N 01°46' E 102°32'714.5
2017-May-13 15:31N 01°49' E 102°26'815.0
2017-May-13 15:00N 01°52' E 102°19'  

Dump ship's entire track history